sensor_id;sensor_type;location;lat;lon;timestamp;P1;durP1;ratioP1;P2;durP2;ratioP2
67556;SDS011;54387;53.526;49.300;2022-09-03T00:02:27;17.10;;;9.80;;
67556;SDS011;54387;53.526;49.300;2022-09-03T00:05:04;15.82;;;9.52;;
67556;SDS011;54387;53.526;49.300;2022-09-03T00:10:08;14.82;;;8.57;;
67556;SDS011;54387;53.526;49.300;2022-09-03T00:12:42;16.27;;;9.02;;
67556;SDS011;54387;53.526;49.300;2022-09-03T00:22:42;18.42;;;8.90;;
67556;SDS011;54387;53.526;49.300;2022-09-03T00:25:14;16.67;;;9.23;;
67556;SDS011;54387;53.526;49.300;2022-09-03T00:27:45;17.25;;;9.23;;
67556;SDS011;54387;53.526;49.300;2022-09-03T00:30:15;16.15;;;8.73;;
67556;SDS011;54387;53.526;49.300;2022-09-03T00:32:44;21.02;;;9.32;;
67556;SDS011;54387;53.526;49.300;2022-09-03T00:35:33;17.38;;;9.43;;
67556;SDS011;54387;53.526;49.300;2022-09-03T00:38:09;15.32;;;8.38;;
67556;SDS011;54387;53.526;49.300;2022-09-03T00:40:52;15.88;;;8.10;;
67556;SDS011;54387;53.526;49.300;2022-09-03T00:46:08;15.50;;;8.07;;
67556;SDS011;54387;53.526;49.300;2022-09-03T00:51:33;18.63;;;8.63;;
67556;SDS011;54387;53.526;49.300;2022-09-03T00:54:06;18.60;;;8.38;;
67556;SDS011;54387;53.526;49.300;2022-09-03T00:59:21;13.93;;;8.00;;
67556;SDS011;54387;53.526;49.300;2022-09-03T01:02:00;14.82;;;9.15;;
67556;SDS011;54387;53.526;49.300;2022-09-03T01:13:49;16.40;;;10.45;;
67556;SDS011;54387;53.526;49.300;2022-09-03T01:19:03;19.40;;;11.48;;
67556;SDS011;54387;53.526;49.300;2022-09-03T01:24:40;20.13;;;11.63;;
67556;SDS011;54387;53.526;49.300;2022-09-03T01:30:18;20.98;;;11.73;;
67556;SDS011;54387;53.526;49.300;2022-09-03T01:32:50;21.10;;;13.07;;
67556;SDS011;54387;53.526;49.300;2022-09-03T01:43:56;18.10;;;10.77;;
67556;SDS011;54387;53.526;49.300;2022-09-03T01:46:39;19.05;;;10.35;;
67556;SDS011;54387;53.526;49.300;2022-09-03T01:51:38;20.10;;;9.82;;
67556;SDS011;54387;53.526;49.300;2022-09-03T01:54:14;14.73;;;8.63;;
67556;SDS011;54387;53.526;49.300;2022-09-03T01:57:04;15.15;;;9.07;;
67556;SDS011;54387;53.526;49.300;2022-09-03T02:02:45;15.18;;;8.98;;
67556;SDS011;54387;53.526;49.300;2022-09-03T02:05:20;14.63;;;9.85;;
67556;SDS011;54387;53.526;49.300;2022-09-03T02:07:55;17.25;;;10.32;;
67556;SDS011;54387;53.526;49.300;2022-09-03T02:10:28;17.90;;;10.52;;
67556;SDS011;54387;53.526;49.300;2022-09-03T02:13:05;16.75;;;10.52;;
67556;SDS011;54387;53.526;49.300;2022-09-03T02:15:41;18.45;;;11.50;;
67556;SDS011;54387;53.526;49.300;2022-09-03T02:18:14;17.90;;;11.73;;
67556;SDS011;54387;53.526;49.300;2022-09-03T02:20:43;18.80;;;11.80;;
67556;SDS011;54387;53.526;49.300;2022-09-03T02:23:12;22.33;;;12.55;;
67556;SDS011;54387;53.526;49.300;2022-09-03T02:25:40;19.23;;;11.63;;
67556;SDS011;54387;53.526;49.300;2022-09-03T02:28:14;21.60;;;12.55;;
67556;SDS011;54387;53.526;49.300;2022-09-03T02:30:41;22.55;;;12.02;;
67556;SDS011;54387;53.526;49.300;2022-09-03T02:33:07;18.75;;;11.27;;
67556;SDS011;54387;53.526;49.300;2022-09-03T02:35:34;19.00;;;11.57;;
67556;SDS011;54387;53.526;49.300;2022-09-03T02:38:14;18.25;;;11.40;;
67556;SDS011;54387;53.526;49.300;2022-09-03T02:40:50;14.18;;;9.75;;
67556;SDS011;54387;53.526;49.300;2022-09-03T02:43:33;14.70;;;9.30;;
67556;SDS011;54387;53.526;49.300;2022-09-03T02:46:22;15.07;;;9.30;;
67556;SDS011;54387;53.526;49.300;2022-09-03T02:48:52;11.98;;;8.10;;
67556;SDS011;54387;53.526;49.300;2022-09-03T02:51:19;15.23;;;8.80;;
67556;SDS011;54387;53.526;49.300;2022-09-03T02:53:45;13.60;;;7.93;;
67556;SDS011;54387;53.526;49.300;2022-09-03T02:56:11;16.77;;;7.50;;
67556;SDS011;54387;53.526;49.300;2022-09-03T02:58:37;11.27;;;6.82;;
67556;SDS011;54387;53.526;49.300;2022-09-03T03:01:04;11.32;;;6.95;;
67556;SDS011;54387;53.526;49.300;2022-09-03T03:03:30;12.82;;;7.15;;
67556;SDS011;54387;53.526;49.300;2022-09-03T03:05:58;10.10;;;5.78;;
67556;SDS011;54387;53.526;49.300;2022-09-03T03:08:27;14.27;;;6.60;;
67556;SDS011;54387;53.526;49.300;2022-09-03T03:10:55;10.68;;;6.35;;
67556;SDS011;54387;53.526;49.300;2022-09-03T03:13:27;12.77;;;6.97;;
67556;SDS011;54387;53.526;49.300;2022-09-03T03:15:55;10.55;;;5.90;;
67556;SDS011;54387;53.526;49.300;2022-09-03T03:18:22;13.02;;;5.82;;
67556;SDS011;54387;53.526;49.300;2022-09-03T03:20:49;9.80;;;6.05;;
67556;SDS011;54387;53.526;49.300;2022-09-03T03:23:15;8.35;;;4.75;;
67556;SDS011;54387;53.526;49.300;2022-09-03T03:25:42;10.90;;;6.15;;
67556;SDS011;54387;53.526;49.300;2022-09-03T03:28:08;8.82;;;5.15;;
67556;SDS011;54387;53.526;49.300;2022-09-03T03:30:37;11.20;;;5.95;;
67556;SDS011;54387;53.526;49.300;2022-09-03T03:33:10;10.13;;;5.03;;
67556;SDS011;54387;53.526;49.300;2022-09-03T03:35:36;9.73;;;5.50;;
67556;SDS011;54387;53.526;49.300;2022-09-03T03:38:02;8.70;;;4.90;;
67556;SDS011;54387;53.526;49.300;2022-09-03T03:40:29;8.98;;;5.32;;
67556;SDS011;54387;53.526;49.300;2022-09-03T03:42:56;9.48;;;5.78;;
67556;SDS011;54387;53.526;49.300;2022-09-03T03:45:23;11.65;;;6.63;;
67556;SDS011;54387;53.526;49.300;2022-09-03T03:47:49;10.95;;;6.88;;
67556;SDS011;54387;53.526;49.300;2022-09-03T03:50:15;10.77;;;6.07;;
67556;SDS011;54387;53.526;49.300;2022-09-03T03:52:41;9.65;;;6.22;;
67556;SDS011;54387;53.526;49.300;2022-09-03T03:55:08;11.07;;;6.78;;
67556;SDS011;54387;53.526;49.300;2022-09-03T03:57:34;13.20;;;7.72;;
67556;SDS011;54387;53.526;49.300;2022-09-03T04:00:01;14.20;;;8.32;;
67556;SDS011;54387;53.526;49.300;2022-09-03T04:02:27;14.20;;;7.78;;
67556;SDS011;54387;53.526;49.300;2022-09-03T04:04:53;15.57;;;8.02;;
67556;SDS011;54387;53.526;49.300;2022-09-03T04:07:19;13.57;;;8.00;;
67556;SDS011;54387;53.526;49.300;2022-09-03T04:09:45;13.80;;;7.32;;
67556;SDS011;54387;53.526;49.300;2022-09-03T04:12:12;14.60;;;7.13;;
67556;SDS011;54387;53.526;49.300;2022-09-03T04:14:38;10.98;;;6.35;;
67556;SDS011;54387;53.526;49.300;2022-09-03T04:17:04;12.80;;;6.88;;
67556;SDS011;54387;53.526;49.300;2022-09-03T04:19:30;10.93;;;5.72;;
67556;SDS011;54387;53.526;49.300;2022-09-03T04:21:56;10.85;;;7.10;;
67556;SDS011;54387;53.526;49.300;2022-09-03T04:24:22;9.80;;;5.97;;
67556;SDS011;54387;53.526;49.300;2022-09-03T04:26:49;14.10;;;7.22;;
67556;SDS011;54387;53.526;49.300;2022-09-03T04:29:15;11.60;;;6.85;;
67556;SDS011;54387;53.526;49.300;2022-09-03T04:31:42;13.50;;;9.23;;
67556;SDS011;54387;53.526;49.300;2022-09-03T04:34:28;20.13;;;10.25;;
67556;SDS011;54387;53.526;49.300;2022-09-03T04:36:54;16.52;;;10.25;;
67556;SDS011;54387;53.526;49.300;2022-09-03T04:39:22;12.48;;;8.32;;
67556;SDS011;54387;53.526;49.300;2022-09-03T04:41:49;15.10;;;8.05;;
67556;SDS011;54387;53.526;49.300;2022-09-03T04:44:15;13.07;;;5.30;;
67556;SDS011;54387;53.526;49.300;2022-09-03T04:46:41;6.60;;;3.53;;
67556;SDS011;54387;53.526;49.300;2022-09-03T04:49:08;3.17;;;1.83;;
67556;SDS011;54387;53.526;49.300;2022-09-03T04:51:35;7.20;;;1.63;;
67556;SDS011;54387;53.526;49.300;2022-09-03T04:54:02;2.35;;;1.40;;
67556;SDS011;54387;53.526;49.300;2022-09-03T04:56:33;3.17;;;1.85;;
67556;SDS011;54387;53.526;49.300;2022-09-03T04:59:03;4.13;;;1.98;;
67556;SDS011;54387;53.526;49.300;2022-09-03T05:01:32;7.57;;;2.90;;
67556;SDS011;54387;53.526;49.300;2022-09-03T05:03:59;9.93;;;5.30;;
67556;SDS011;54387;53.526;49.300;2022-09-03T05:06:26;12.43;;;5.65;;
67556;SDS011;54387;53.526;49.300;2022-09-03T05:08:54;12.60;;;6.05;;
67556;SDS011;54387;53.526;49.300;2022-09-03T05:11:21;10.55;;;6.38;;
67556;SDS011;54387;53.526;49.300;2022-09-03T05:13:49;12.77;;;7.97;;
67556;SDS011;54387;53.526;49.300;2022-09-03T05:16:17;14.98;;;8.20;;
67556;SDS011;54387;53.526;49.300;2022-09-03T05:18:44;20.80;;;10.77;;
67556;SDS011;54387;53.526;49.300;2022-09-03T05:21:12;20.20;;;12.43;;
67556;SDS011;54387;53.526;49.300;2022-09-03T05:23:41;18.30;;;10.90;;
67556;SDS011;54387;53.526;49.300;2022-09-03T05:26:10;17.73;;;10.52;;
67556;SDS011;54387;53.526;49.300;2022-09-03T05:28:39;20.38;;;12.70;;
67556;SDS011;54387;53.526;49.300;2022-09-03T05:33:33;21.30;;;13.27;;
67556;SDS011;54387;53.526;49.300;2022-09-03T05:36:01;25.58;;;15.25;;
67556;SDS011;54387;53.526;49.300;2022-09-03T05:38:32;22.08;;;12.10;;
67556;SDS011;54387;53.526;49.300;2022-09-03T05:41:01;19.58;;;11.85;;
67556;SDS011;54387;53.526;49.300;2022-09-03T05:43:29;36.05;;;19.98;;
67556;SDS011;54387;53.526;49.300;2022-09-03T05:45:56;52.35;;;31.48;;
67556;SDS011;54387;53.526;49.300;2022-09-03T05:48:25;80.30;;;46.35;;
67556;SDS011;54387;53.526;49.300;2022-09-03T05:53:26;87.20;;;50.77;;
67556;SDS011;54387;53.526;49.300;2022-09-03T05:56:03;71.60;;;39.78;;
67556;SDS011;54387;53.526;49.300;2022-09-03T05:58:35;73.93;;;42.97;;
67556;SDS011;54387;53.526;49.300;2022-09-03T06:01:22;35.33;;;20.77;;
67556;SDS011;54387;53.526;49.300;2022-09-03T06:03:59;30.48;;;18.38;;
67556;SDS011;54387;53.526;49.300;2022-09-03T06:06:30;22.67;;;13.63;;
67556;SDS011;54387;53.526;49.300;2022-09-03T06:08:59;13.05;;;8.60;;
67556;SDS011;54387;53.526;49.300;2022-09-03T06:11:27;8.18;;;3.10;;
67556;SDS011;54387;53.526;49.300;2022-09-03T06:13:54;4.20;;;1.85;;
67556;SDS011;54387;53.526;49.300;2022-09-03T06:16:22;4.32;;;1.25;;
67556;SDS011;54387;53.526;49.300;2022-09-03T06:18:49;2.35;;;0.90;;
67556;SDS011;54387;53.526;49.300;2022-09-03T06:21:16;0.73;;;0.60;;
67556;SDS011;54387;53.526;49.300;2022-09-03T06:23:42;2.90;;;0.80;;
67556;SDS011;54387;53.526;49.300;2022-09-03T06:26:09;1.60;;;0.90;;
67556;SDS011;54387;53.526;49.300;2022-09-03T06:28:37;2.17;;;1.02;;
67556;SDS011;54387;53.526;49.300;2022-09-03T06:31:06;2.60;;;0.80;;
67556;SDS011;54387;53.526;49.300;2022-09-03T06:33:35;1.92;;;0.85;;
67556;SDS011;54387;53.526;49.300;2022-09-03T06:36:03;1.50;;;1.00;;
67556;SDS011;54387;53.526;49.300;2022-09-03T06:38:34;1.90;;;0.98;;
67556;SDS011;54387;53.526;49.300;2022-09-03T06:41:03;5.03;;;2.13;;
67556;SDS011;54387;53.526;49.300;2022-09-03T06:43:38;3.80;;;1.60;;
67556;SDS011;54387;53.526;49.300;2022-09-03T06:46:11;2.65;;;1.60;;
67556;SDS011;54387;53.526;49.300;2022-09-03T06:48:39;3.85;;;1.92;;
67556;SDS011;54387;53.526;49.300;2022-09-03T06:51:10;4.55;;;2.10;;
67556;SDS011;54387;53.526;49.300;2022-09-03T06:53:39;2.33;;;1.50;;
67556;SDS011;54387;53.526;49.300;2022-09-03T06:56:10;2.15;;;1.50;;
67556;SDS011;54387;53.526;49.300;2022-09-03T06:58:39;1.67;;;1.02;;
67556;SDS011;54387;53.526;49.300;2022-09-03T07:01:12;1.40;;;0.90;;
67556;SDS011;54387;53.526;49.300;2022-09-03T07:03:40;1.50;;;0.50;;
67556;SDS011;54387;53.526;49.300;2022-09-03T07:06:15;1.33;;;0.40;;
67556;SDS011;54387;53.526;49.300;2022-09-03T07:08:43;0.80;;;0.55;;
67556;SDS011;54387;53.526;49.300;2022-09-03T07:11:15;0.95;;;0.70;;
67556;SDS011;54387;53.526;49.300;2022-09-03T07:13:44;1.00;;;0.50;;
67556;SDS011;54387;53.526;49.300;2022-09-03T07:16:13;2.53;;;0.75;;
67556;SDS011;54387;53.526;49.300;2022-09-03T07:18:41;0.98;;;0.65;;
67556;SDS011;54387;53.526;49.300;2022-09-03T07:21:13;0.65;;;0.50;;
67556;SDS011;54387;53.526;49.300;2022-09-03T07:23:41;0.45;;;0.43;;
67556;SDS011;54387;53.526;49.300;2022-09-03T07:26:21;1.05;;;0.70;;
67556;SDS011;54387;53.526;49.300;2022-09-03T07:28:49;1.00;;;0.73;;
67556;SDS011;54387;53.526;49.300;2022-09-03T07:31:23;1.88;;;1.00;;
67556;SDS011;54387;53.526;49.300;2022-09-03T07:33:58;1.08;;;0.98;;
67556;SDS011;54387;53.526;49.300;2022-09-03T07:36:35;4.45;;;0.90;;
67556;SDS011;54387;53.526;49.300;2022-09-03T07:39:07;1.27;;;0.60;;
67556;SDS011;54387;53.526;49.300;2022-09-03T07:41:35;1.60;;;0.70;;
67556;SDS011;54387;53.526;49.300;2022-09-03T07:44:02;4.18;;;0.82;;
67556;SDS011;54387;53.526;49.300;2022-09-03T07:46:33;1.20;;;0.75;;
67556;SDS011;54387;53.526;49.300;2022-09-03T07:49:00;1.42;;;0.70;;
67556;SDS011;54387;53.526;49.300;2022-09-03T07:51:28;2.45;;;0.70;;
67556;SDS011;54387;53.526;49.300;2022-09-03T07:53:57;1.83;;;0.73;;
67556;SDS011;54387;53.526;49.300;2022-09-03T07:56:25;0.80;;;0.65;;
67556;SDS011;54387;53.526;49.300;2022-09-03T07:58:52;3.20;;;1.55;;
67556;SDS011;54387;53.526;49.300;2022-09-03T08:01:22;1.25;;;0.90;;
67556;SDS011;54387;53.526;49.300;2022-09-03T08:03:50;1.40;;;0.88;;
67556;SDS011;54387;53.526;49.300;2022-09-03T08:06:19;1.08;;;0.73;;
67556;SDS011;54387;53.526;49.300;2022-09-03T08:08:47;4.32;;;1.20;;
67556;SDS011;54387;53.526;49.300;2022-09-03T08:11:19;1.35;;;0.82;;
67556;SDS011;54387;53.526;49.300;2022-09-03T08:13:47;1.10;;;0.60;;
67556;SDS011;54387;53.526;49.300;2022-09-03T08:16:21;2.25;;;0.93;;
67556;SDS011;54387;53.526;49.300;2022-09-03T08:18:48;5.15;;;0.77;;
67556;SDS011;54387;53.526;49.300;2022-09-03T08:21:16;0.88;;;0.65;;
67556;SDS011;54387;53.526;49.300;2022-09-03T08:23:47;1.20;;;0.60;;
67556;SDS011;54387;53.526;49.300;2022-09-03T08:26:16;1.67;;;0.60;;
67556;SDS011;54387;53.526;49.300;2022-09-03T08:28:43;1.58;;;0.68;;
67556;SDS011;54387;53.526;49.300;2022-09-03T08:31:11;0.57;;;0.55;;
67556;SDS011;54387;53.526;49.300;2022-09-03T08:33:43;2.03;;;0.60;;
67556;SDS011;54387;53.526;49.300;2022-09-03T08:36:12;2.13;;;0.77;;
67556;SDS011;54387;53.526;49.300;2022-09-03T08:38:40;0.95;;;0.55;;
67556;SDS011;54387;53.526;49.300;2022-09-03T08:43:39;1.42;;;1.05;;
67556;SDS011;54387;53.526;49.300;2022-09-03T08:46:20;2.60;;;1.08;;
67556;SDS011;54387;53.526;49.300;2022-09-03T08:48:48;4.05;;;1.17;;
67556;SDS011;54387;53.526;49.300;2022-09-03T08:51:15;2.03;;;0.80;;
67556;SDS011;54387;53.526;49.300;2022-09-03T08:53:48;2.03;;;0.88;;
67556;SDS011;54387;53.526;49.300;2022-09-03T08:56:26;2.75;;;1.10;;
67556;SDS011;54387;53.526;49.300;2022-09-03T08:58:54;3.10;;;1.00;;
67556;SDS011;54387;53.526;49.300;2022-09-03T09:14:54;1.13;;;0.93;;
67556;SDS011;54387;53.526;49.300;2022-09-03T09:17:53;3.83;;;1.00;;
67556;SDS011;54387;53.526;49.300;2022-09-03T09:20:40;2.75;;;1.10;;
67556;SDS011;54387;53.526;49.300;2022-09-03T09:25:55;1.50;;;1.10;;
67556;SDS011;54387;53.526;49.300;2022-09-03T09:28:29;1.83;;;0.93;;
67556;SDS011;54387;53.526;49.300;2022-09-03T09:31:00;3.35;;;1.10;;
67556;SDS011;54387;53.526;49.300;2022-09-03T09:33:29;2.22;;;0.90;;
67556;SDS011;54387;53.526;49.300;2022-09-03T09:36:00;2.20;;;1.20;;
67556;SDS011;54387;53.526;49.300;2022-09-03T09:38:31;1.58;;;1.05;;
67556;SDS011;54387;53.526;49.300;2022-09-03T09:43:59;1.33;;;0.88;;
67556;SDS011;54387;53.526;49.300;2022-09-03T09:46:29;4.55;;;1.63;;
67556;SDS011;54387;53.526;49.300;2022-09-03T09:52:20;1.40;;;0.98;;
67556;SDS011;54387;53.526;49.300;2022-09-03T09:54:50;2.05;;;1.13;;
67556;SDS011;54387;53.526;49.300;2022-09-03T09:57:22;1.52;;;0.98;;
67556;SDS011;54387;53.526;49.300;2022-09-03T10:00:11;2.03;;;1.20;;
67556;SDS011;54387;53.526;49.300;2022-09-03T10:02:38;2.03;;;1.52;;
67556;SDS011;54387;53.526;49.300;2022-09-03T10:05:21;1.27;;;0.88;;
67556;SDS011;54387;53.526;49.300;2022-09-03T10:08:00;1.30;;;0.98;;
67556;SDS011;54387;53.526;49.300;2022-09-03T10:10:49;1.73;;;1.20;;
67556;SDS011;54387;53.526;49.300;2022-09-03T10:13:29;2.60;;;1.33;;
67556;SDS011;54387;53.526;49.300;2022-09-03T10:16:12;3.47;;;1.30;;
67556;SDS011;54387;53.526;49.300;2022-09-03T10:19:34;2.83;;;1.02;;
67556;SDS011;54387;53.526;49.300;2022-09-03T10:21:43;1.20;;;0.95;;
67556;SDS011;54387;53.526;49.300;2022-09-03T10:27:25;3.83;;;2.60;;
67556;SDS011;54387;53.526;49.300;2022-09-03T10:29:51;2.33;;;1.05;;
67556;SDS011;54387;53.526;49.300;2022-09-03T10:32:24;2.03;;;1.40;;
67556;SDS011;54387;53.526;49.300;2022-09-03T10:46:28;2.20;;;1.30;;
67556;SDS011;54387;53.526;49.300;2022-09-03T10:49:27;3.28;;;1.63;;
67556;SDS011;54387;53.526;49.300;2022-09-03T10:55:16;3.22;;;1.45;;
67556;SDS011;54387;53.526;49.300;2022-09-03T11:00:51;1.70;;;1.23;;
67556;SDS011;54387;53.526;49.300;2022-09-03T11:03:59;3.25;;;1.50;;
67556;SDS011;54387;53.526;49.300;2022-09-03T11:12:43;2.95;;;1.35;;
67556;SDS011;54387;53.526;49.300;2022-09-03T11:18:11;2.55;;;1.50;;
67556;SDS011;54387;53.526;49.300;2022-09-03T11:21:01;5.38;;;1.60;;
67556;SDS011;54387;53.526;49.300;2022-09-03T11:23:32;2.90;;;1.40;;
67556;SDS011;54387;53.526;49.300;2022-09-03T11:26:03;3.85;;;1.38;;
67556;SDS011;54387;53.526;49.300;2022-09-03T11:31:33;2.67;;;1.50;;
67556;SDS011;54387;53.526;49.300;2022-09-03T11:36:50;4.78;;;1.33;;
67556;SDS011;54387;53.526;49.300;2022-09-03T11:42:19;3.30;;;1.90;;
67556;SDS011;54387;53.526;49.300;2022-09-03T11:44:58;4.05;;;1.90;;
67556;SDS011;54387;53.526;49.300;2022-09-03T11:47:38;4.18;;;1.77;;
67556;SDS011;54387;53.526;49.300;2022-09-03T11:50:19;2.97;;;1.30;;
67556;SDS011;54387;53.526;49.300;2022-09-03T11:52:49;5.10;;;2.22;;
67556;SDS011;54387;53.526;49.300;2022-09-03T11:55:52;2.55;;;1.50;;
67556;SDS011;54387;53.526;49.300;2022-09-03T12:01:09;2.85;;;1.52;;
67556;SDS011;54387;53.526;49.300;2022-09-03T12:03:45;5.25;;;2.25;;
67556;SDS011;54387;53.526;49.300;2022-09-03T12:11:35;3.08;;;1.77;;
67556;SDS011;54387;53.526;49.300;2022-09-03T12:17:10;5.93;;;2.22;;
67556;SDS011;54387;53.526;49.300;2022-09-03T12:20:09;1.90;;;1.38;;
67556;SDS011;54387;53.526;49.300;2022-09-03T12:22:38;1.95;;;1.38;;
67556;SDS011;54387;53.526;49.300;2022-09-03T12:25:08;2.13;;;1.10;;
67556;SDS011;54387;53.526;49.300;2022-09-03T12:27:36;1.83;;;1.30;;
67556;SDS011;54387;53.526;49.300;2022-09-03T12:30:03;2.83;;;1.35;;
67556;SDS011;54387;53.526;49.300;2022-09-03T12:32:38;2.22;;;1.58;;
67556;SDS011;54387;53.526;49.300;2022-09-03T12:35:12;5.35;;;1.35;;
67556;SDS011;54387;53.526;49.300;2022-09-03T12:37:50;3.55;;;1.20;;
67556;SDS011;54387;53.526;49.300;2022-09-03T12:40:24;3.17;;;1.40;;
67556;SDS011;54387;53.526;49.300;2022-09-03T12:42:54;1.60;;;1.15;;
67556;SDS011;54387;53.526;49.300;2022-09-03T12:45:41;2.20;;;1.50;;
67556;SDS011;54387;53.526;49.300;2022-09-03T12:48:29;9.40;;;2.22;;
67556;SDS011;54387;53.526;49.300;2022-09-03T12:51:01;4.50;;;2.00;;
67556;SDS011;54387;53.526;49.300;2022-09-03T12:53:28;3.70;;;1.90;;
67556;SDS011;54387;53.526;49.300;2022-09-03T12:55:57;2.83;;;1.60;;
67556;SDS011;54387;53.526;49.300;2022-09-03T12:58:33;3.17;;;1.63;;
67556;SDS011;54387;53.526;49.300;2022-09-03T13:01:27;1.88;;;1.30;;
67556;SDS011;54387;53.526;49.300;2022-09-03T13:04:08;3.28;;;1.42;;
67556;SDS011;54387;53.526;49.300;2022-09-03T13:06:49;2.47;;;1.90;;
67556;SDS011;54387;53.526;49.300;2022-09-03T13:09:38;6.75;;;2.10;;
67556;SDS011;54387;53.526;49.300;2022-09-03T13:12:06;3.05;;;1.52;;
67556;SDS011;54387;53.526;49.300;2022-09-03T13:14:56;5.80;;;1.70;;
67556;SDS011;54387;53.526;49.300;2022-09-03T13:18:15;6.53;;;1.60;;
67556;SDS011;54387;53.526;49.300;2022-09-03T13:23:14;4.57;;;2.17;;
67556;SDS011;54387;53.526;49.300;2022-09-03T13:25:52;4.22;;;1.92;;
67556;SDS011;54387;53.526;49.300;2022-09-03T13:34:12;5.22;;;2.83;;
67556;SDS011;54387;53.526;49.300;2022-09-03T13:36:53;5.50;;;2.58;;
67556;SDS011;54387;53.526;49.300;2022-09-03T13:39:34;3.60;;;2.33;;
67556;SDS011;54387;53.526;49.300;2022-09-03T13:42:08;7.25;;;2.67;;
67556;SDS011;54387;53.526;49.300;2022-09-03T13:44:49;7.22;;;2.67;;
67556;SDS011;54387;53.526;49.300;2022-09-03T13:50:50;5.72;;;2.80;;
67556;SDS011;54387;53.526;49.300;2022-09-03T13:53:48;6.07;;;3.45;;
67556;SDS011;54387;53.526;49.300;2022-09-03T14:02:42;7.97;;;5.07;;
67556;SDS011;54387;53.526;49.300;2022-09-03T14:05:23;9.52;;;4.78;;
67556;SDS011;54387;53.526;49.300;2022-09-03T14:19:04;4.35;;;3.03;;
67556;SDS011;54387;53.526;49.300;2022-09-03T14:21:41;4.32;;;2.60;;
67556;SDS011;54387;53.526;49.300;2022-09-03T14:26:56;6.03;;;3.30;;
67556;SDS011;54387;53.526;49.300;2022-09-03T14:29:34;7.05;;;3.42;;
67556;SDS011;54387;53.526;49.300;2022-09-03T14:32:04;6.00;;;3.38;;
67556;SDS011;54387;53.526;49.300;2022-09-03T14:34:59;7.75;;;3.30;;
67556;SDS011;54387;53.526;49.300;2022-09-03T15:00:02;6.55;;;3.80;;
67556;SDS011;54387;53.526;49.300;2022-09-03T15:02:45;7.65;;;3.58;;
67556;SDS011;54387;53.526;49.300;2022-09-03T15:07:51;8.82;;;3.80;;
67556;SDS011;54387;53.526;49.300;2022-09-03T15:13:18;6.75;;;3.58;;
67556;SDS011;54387;53.526;49.300;2022-09-03T15:36:14;10.32;;;4.80;;
67556;SDS011;54387;53.526;49.300;2022-09-03T15:41:20;13.15;;;6.35;;
67556;SDS011;54387;53.526;49.300;2022-09-03T15:44:06;14.50;;;6.03;;
67556;SDS011;54387;53.526;49.300;2022-09-03T15:49:16;13.25;;;6.93;;
67556;SDS011;54387;53.526;49.300;2022-09-03T16:03:10;13.85;;;6.20;;
67556;SDS011;54387;53.526;49.300;2022-09-03T16:05:45;13.95;;;6.25;;
67556;SDS011;54387;53.526;49.300;2022-09-03T16:08:24;9.35;;;5.68;;
67556;SDS011;54387;53.526;49.300;2022-09-03T16:16:43;14.73;;;6.05;;
67556;SDS011;54387;53.526;49.300;2022-09-03T16:24:23;14.52;;;6.60;;
67556;SDS011;54387;53.526;49.300;2022-09-03T16:27:19;14.18;;;6.88;;
67556;SDS011;54387;53.526;49.300;2022-09-03T16:36:17;14.02;;;6.35;;
67556;SDS011;54387;53.526;49.300;2022-09-03T16:41:40;14.88;;;5.88;;
67556;SDS011;54387;53.526;49.300;2022-09-03T16:50:04;14.65;;;6.00;;
67556;SDS011;54387;53.526;49.300;2022-09-03T16:52:40;11.25;;;6.15;;
67556;SDS011;54387;53.526;49.300;2022-09-03T17:08:54;11.82;;;6.45;;
67556;SDS011;54387;53.526;49.300;2022-09-03T17:17:19;12.85;;;5.20;;
67556;SDS011;54387;53.526;49.300;2022-09-03T17:22:55;10.13;;;5.72;;
67556;SDS011;54387;53.526;49.300;2022-09-03T17:25:37;13.75;;;5.88;;
67556;SDS011;54387;53.526;49.300;2022-09-03T17:33:38;11.05;;;5.32;;
67556;SDS011;54387;53.526;49.300;2022-09-03T17:36:11;16.80;;;5.93;;
67556;SDS011;54387;53.526;49.300;2022-09-03T17:41:52;10.15;;;5.22;;
67556;SDS011;54387;53.526;49.300;2022-09-03T17:45:02;17.38;;;5.75;;
67556;SDS011;54387;53.526;49.300;2022-09-03T17:52:46;11.43;;;5.30;;
67556;SDS011;54387;53.526;49.300;2022-09-03T17:55:20;13.73;;;6.13;;
67556;SDS011;54387;53.526;49.300;2022-09-03T18:03:46;11.65;;;5.95;;
67556;SDS011;54387;53.526;49.300;2022-09-03T18:06:31;15.93;;;5.85;;
67556;SDS011;54387;53.526;49.300;2022-09-03T18:09:06;16.58;;;5.88;;
67556;SDS011;54387;53.526;49.300;2022-09-03T18:11:48;11.00;;;5.75;;
67556;SDS011;54387;53.526;49.300;2022-09-03T18:14:21;14.85;;;5.45;;
67556;SDS011;54387;53.526;49.300;2022-09-03T18:22:47;13.40;;;5.82;;
67556;SDS011;54387;53.526;49.300;2022-09-03T18:25:36;14.40;;;6.03;;
67556;SDS011;54387;53.526;49.300;2022-09-03T18:28:46;11.13;;;5.97;;
67556;SDS011;54387;53.526;49.300;2022-09-03T18:31:31;14.57;;;6.25;;
67556;SDS011;54387;53.526;49.300;2022-09-03T18:34:17;12.77;;;5.65;;
67556;SDS011;54387;53.526;49.300;2022-09-03T18:37:04;13.40;;;5.90;;
67556;SDS011;54387;53.526;49.300;2022-09-03T18:39:50;12.82;;;6.30;;
67556;SDS011;54387;53.526;49.300;2022-09-03T18:45:30;15.90;;;6.30;;
67556;SDS011;54387;53.526;49.300;2022-09-03T18:48:39;13.15;;;5.88;;
67556;SDS011;54387;53.526;49.300;2022-09-03T19:01:05;16.48;;;6.55;;
67556;SDS011;54387;53.526;49.300;2022-09-03T19:10:13;13.15;;;5.55;;
67556;SDS011;54387;53.526;49.300;2022-09-03T19:22:41;11.70;;;6.13;;
67556;SDS011;54387;53.526;49.300;2022-09-03T19:25:26;12.77;;;6.13;;
67556;SDS011;54387;53.526;49.300;2022-09-03T19:28:19;13.27;;;5.90;;
67556;SDS011;54387;53.526;49.300;2022-09-03T19:31:23;10.23;;;5.82;;
67556;SDS011;54387;53.526;49.300;2022-09-03T19:37:55;13.20;;;6.25;;
67556;SDS011;54387;53.526;49.300;2022-09-03T19:43:51;14.25;;;6.53;;
67556;SDS011;54387;53.526;49.300;2022-09-03T19:46:54;12.07;;;6.00;;
67556;SDS011;54387;53.526;49.300;2022-09-03T19:52:49;13.70;;;5.65;;
67556;SDS011;54387;53.526;49.300;2022-09-03T19:55:48;10.02;;;5.25;;
67556;SDS011;54387;53.526;49.300;2022-09-03T19:58:39;14.57;;;6.35;;
67556;SDS011;54387;53.526;49.300;2022-09-03T20:01:46;10.25;;;5.88;;
67556;SDS011;54387;53.526;49.300;2022-09-03T20:04:35;12.98;;;6.40;;
67556;SDS011;54387;53.526;49.300;2022-09-03T20:07:24;12.18;;;5.93;;
67556;SDS011;54387;53.526;49.300;2022-09-03T20:10:10;14.75;;;6.32;;
67556;SDS011;54387;53.526;49.300;2022-09-03T20:15:41;10.55;;;5.70;;
67556;SDS011;54387;53.526;49.300;2022-09-03T20:26:52;10.88;;;6.00;;
67556;SDS011;54387;53.526;49.300;2022-09-03T20:55:19;18.67;;;8.70;;
67556;SDS011;54387;53.526;49.300;2022-09-03T20:58:00;17.10;;;7.22;;
67556;SDS011;54387;53.526;49.300;2022-09-03T21:01:19;14.82;;;7.90;;
67556;SDS011;54387;53.526;49.300;2022-09-03T21:03:17;17.23;;;8.15;;
67556;SDS011;54387;53.526;49.300;2022-09-03T21:08:57;20.27;;;9.27;;
67556;SDS011;54387;53.526;49.300;2022-09-03T21:11:31;19.63;;;9.07;;
67556;SDS011;54387;53.526;49.300;2022-09-03T21:14:17;22.88;;;9.68;;
67556;SDS011;54387;53.526;49.300;2022-09-03T21:19:47;19.00;;;9.38;;
67556;SDS011;54387;53.526;49.300;2022-09-03T21:25:16;24.90;;;10.13;;
67556;SDS011;54387;53.526;49.300;2022-09-03T21:27:58;20.25;;;9.93;;
67556;SDS011;54387;53.526;49.300;2022-09-03T21:30:30;19.65;;;10.02;;
67556;SDS011;54387;53.526;49.300;2022-09-03T21:33:25;21.90;;;9.93;;
67556;SDS011;54387;53.526;49.300;2022-09-03T21:38:39;21.73;;;10.13;;